Time;durP1;ratioP1;P1;durP2;ratioP2;P2;SDS_P1;SDS_P2;PMS_P1;PMS_P2;Temp;Humidity;BMP_temperature;BMP_pressure;BME280_temperature;BME280_humidity;BME280_pressure;Samples;Min_cycle;Max_cycle;Signal;HPM_P1;HPM_P2
2023/07/28 00:00:41;;;;;;;20.93;20.10;;;22.50;99.90;;;;;;5050981;28;21005;-62
2023/07/28 00:03:08;;;;;;;20.73;19.47;;;22.50;99.90;;;;;;5051072;28;20487;-63
2023/07/28 00:05:36;;;;;;;20.20;19.40;;;22.50;99.90;;;;;;5051251;28;20507;-63
2023/07/28 00:08:03;;;;;;;20.30;19.63;;;22.50;99.90;;;;;;5049874;28;20486;-62
2023/07/28 00:10:30;;;;;;;20.90;20.20;;;22.40;99.90;;;;;;5051186;28;20496;-62
2023/07/28 00:12:57;;;;;;;20.73;20.03;;;22.40;99.90;;;;;;5051018;28;20475;-62
2023/07/28 00:15:25;;;;;;;20.37;19.70;;;22.40;99.90;;;;;;5044959;28;20472;-62
2023/07/28 00:17:52;;;;;;;22.53;21.63;;;22.40;99.90;;;;;;5051643;28;20476;-62
2023/07/28 00:20:19;;;;;;;20.70;19.90;;;22.40;99.90;;;;;;5055154;28;20495;-63
2023/07/28 00:22:46;;;;;;;22.30;20.43;;;22.40;99.90;;;;;;5055192;28;20444;-63
2023/07/28 00:25:13;;;;;;;19.93;19.27;;;22.40;99.90;;;;;;5054190;28;20495;-62
2023/07/28 00:27:40;;;;;;;21.57;20.87;;;22.40;99.90;;;;;;5055009;28;20543;-62
2023/07/28 00:30:08;;;;;;;20.37;19.67;;;22.40;99.90;;;;;;5055096;28;20492;-62
2023/07/28 00:32:36;;;;;;;20.60;19.53;;;22.40;99.90;;;;;;5055035;28;20472;-62
2023/07/28 00:35:03;;;;;;;19.07;18.40;;;22.30;99.90;;;;;;5053905;28;20480;-63
2023/07/28 00:37:30;;;;;;;19.50;18.80;;;22.30;99.90;;;;;;5049572;28;20476;-63
2023/07/28 00:39:57;;;;;;;20.60;20.00;;;22.30;99.90;;;;;;5046956;28;20465;-63
2023/07/28 00:42:24;;;;;;;20.37;19.67;;;22.30;99.90;;;;;;5049165;28;20502;-62
2023/07/28 00:44:51;;;;;;;20.27;19.43;;;22.30;99.90;;;;;;5054774;28;20480;-63
2023/07/28 00:47:17;;;;;;;20.40;19.70;;;22.30;99.90;;;;;;5046499;28;20483;-63
2023/07/28 00:49:46;;;;;;;20.53;19.73;;;22.30;99.90;;;;;;5054736;28;20491;-63
2023/07/28 00:52:13;;;;;;;19.67;19.00;;;22.30;99.90;;;;;;5053652;28;20464;-62
2023/07/28 00:54:40;;;;;;;20.17;19.47;;;22.30;99.90;;;;;;5054627;28;20902;-63
2023/07/28 00:57:07;;;;;;;20.50;19.80;;;22.30;99.90;;;;;;5054249;28;20475;-63
2023/07/28 00:59:34;;;;;;;19.97;19.37;;;22.30;99.90;;;;;;5054483;28;20471;-63
2023/07/28 01:02:02;;;;;;;20.43;19.70;;;22.30;99.90;;;;;;5053875;28;20962;-62
2023/07/28 01:04:29;;;;;;;19.40;18.73;;;22.30;99.90;;;;;;5047677;28;20479;-63
2023/07/28 01:07:02;;;;;;;19.50;18.90;;;22.30;99.90;;;;;;5054179;28;20884;-63
2023/07/28 01:09:37;;;;;;;20.53;19.80;;;22.30;99.90;;;;;;5054365;28;20447;-63
2023/07/28 01:12:09;;;;;;;19.57;18.97;;;22.20;99.90;;;;;;5052478;28;20482;-63
2023/07/28 01:14:36;;;;;;;21.73;20.80;;;22.30;99.90;;;;;;5048377;28;20527;-62
2023/07/28 01:17:03;;;;;;;19.43;18.83;;;22.20;99.90;;;;;;5053946;28;20490;-63
2023/07/28 01:19:30;;;;;;;19.97;19.37;;;22.20;99.90;;;;;;5054060;28;20456;-63
2023/07/28 01:22:16;;;;;;;19.00;18.40;;;22.20;99.90;;;;;;5053350;28;20476;-63
2023/07/28 01:24:52;;;;;;;18.67;18.07;;;22.20;99.90;;;;;;5054125;28;20511;-63
2023/07/28 01:27:21;;;;;;;19.30;18.60;;;22.20;99.90;;;;;;5045799;28;20483;-62
2023/07/28 01:29:49;;;;;;;19.90;19.30;;;22.20;99.90;;;;;;5052587;28;20495;-63
2023/07/28 01:32:16;;;;;;;20.77;20.07;;;22.20;99.90;;;;;;5052365;28;20527;-63
2023/07/28 01:34:43;;;;;;;19.30;18.60;;;22.20;99.90;;;;;;5047824;28;20885;-62
2023/07/28 01:37:09;;;;;;;20.00;19.30;;;22.20;99.90;;;;;;5053640;28;20476;-63
2023/07/28 01:39:36;;;;;;;19.10;18.50;;;22.20;99.90;;;;;;5053792;28;20943;-63
2023/07/28 01:42:03;;;;;;;18.97;18.37;;;22.20;99.90;;;;;;5052892;28;20537;-63
2023/07/28 01:44:32;;;;;;;19.53;18.93;;;22.20;99.90;;;;;;5053604;28;20471;-63
2023/07/28 01:46:58;;;;;;;20.87;20.17;;;22.20;99.90;;;;;;5053242;28;20509;-62
2023/07/28 01:49:25;;;;;;;19.70;19.10;;;22.20;99.90;;;;;;5053367;28;20481;-63
2023/07/28 01:51:52;;;;;;;19.73;19.03;;;22.20;99.90;;;;;;5052741;28;20480;-63
2023/07/28 01:54:19;;;;;;;20.20;19.50;;;22.20;99.90;;;;;;5053322;28;20847;-62
2023/07/28 01:56:46;;;;;;;19.80;18.90;;;22.20;99.90;;;;;;5053248;28;20480;-63
2023/07/28 01:59:13;;;;;;;19.20;18.60;;;22.20;99.90;;;;;;5052575;28;20480;-62
2023/07/28 02:01:41;;;;;;;19.57;18.87;;;22.20;99.90;;;;;;5051528;28;20619;-63
2023/07/28 02:04:08;;;;;;;19.80;19.10;;;22.20;99.90;;;;;;5053177;28;20448;-63
2023/07/28 02:06:35;;;;;;;20.80;20.00;;;22.20;99.90;;;;;;5053115;28;20480;-63
2023/07/28 02:09:02;;;;;;;27.70;26.70;;;22.20;99.90;;;;;;5052304;28;20482;-62
2023/07/28 02:11:29;;;;;;;26.30;25.17;;;22.20;99.90;;;;;;5053050;28;20491;-63
2023/07/28 02:13:56;;;;;;;20.10;19.30;;;22.20;99.90;;;;;;5052995;28;20465;-62
2023/07/28 02:16:23;;;;;;;18.77;17.90;;;22.20;99.90;;;;;;5053074;28;20467;-63
2023/07/28 02:18:51;;;;;;;20.20;19.10;;;22.20;99.90;;;;;;5052219;28;20440;-63
2023/07/28 02:21:18;;;;;;;20.40;19.60;;;22.20;99.90;;;;;;5052822;28;20491;-63
2023/07/28 02:23:45;;;;;;;20.73;20.03;;;22.20;99.90;;;;;;5053072;28;20811;-63
2023/07/28 02:26:11;;;;;;;19.90;19.20;;;22.20;99.90;;;;;;5052809;28;20503;-63
2023/07/28 02:28:38;;;;;;;20.20;19.50;;;22.10;99.90;;;;;;5046263;28;20483;-63
2023/07/28 02:31:05;;;;;;;21.20;20.50;;;22.20;99.90;;;;;;5052605;28;20495;-63
2023/07/28 02:33:35;;;;;;;20.67;19.97;;;22.20;99.90;;;;;;5052702;28;20970;-62
2023/07/28 02:36:03;;;;;;;20.40;19.70;;;22.20;99.90;;;;;;5052558;28;20444;-63
2023/07/28 02:38:30;;;;;;;19.93;19.33;;;22.20;99.90;;;;;;5051883;28;20480;-63
2023/07/28 02:40:57;;;;;;;21.27;19.57;;;22.20;99.90;;;;;;5052070;28;20891;-63
2023/07/28 02:43:23;;;;;;;20.23;19.63;;;22.20;99.90;;;;;;5052643;28;20479;-63
2023/07/28 02:45:54;;;;;;;19.43;18.70;;;22.20;99.90;;;;;;5052372;28;20903;-62
2023/07/28 02:48:22;;;;;;;20.40;19.67;;;22.10;99.90;;;;;;5045903;28;20240;-63
2023/07/28 02:50:51;;;;;;;18.50;17.90;;;22.20;99.90;;;;;;5052369;28;20472;-63
2023/07/28 02:53:20;;;;;;;18.97;18.37;;;22.20;99.90;;;;;;5052477;28;20479;-63
2023/07/28 02:55:48;;;;;;;19.50;18.80;;;22.20;99.90;;;;;;5052314;28;20468;-62
2023/07/28 02:58:15;;;;;;;19.80;19.10;;;22.20;99.90;;;;;;5051519;28;20480;-63
2023/07/28 03:00:43;;;;;;;19.53;18.93;;;22.10;99.90;;;;;;5076477;22;20507;-63
2023/07/28 03:03:11;;;;;;;20.50;19.80;;;22.20;99.90;;;;;;5051462;28;20444;-63
2023/07/28 03:05:39;;;;;;;20.27;19.50;;;22.20;99.90;;;;;;5051950;28;20914;-63
2023/07/28 03:08:06;;;;;;;20.73;20.03;;;22.10;99.90;;;;;;5051220;28;20492;-63
2023/07/28 03:10:35;;;;;;;21.20;20.40;;;22.10;99.90;;;;;;5052029;28;20494;-63
2023/07/28 03:13:02;;;;;;;20.53;19.90;;;22.10;99.90;;;;;;5051889;28;20482;-63
2023/07/28 03:15:29;;;;;;;21.53;20.83;;;22.10;99.90;;;;;;5051893;28;20856;-63
2023/07/28 03:17:56;;;;;;;21.00;20.30;;;22.10;99.90;;;;;;5050913;28;20853;-63
2023/07/28 03:20:23;;;;;;;20.50;19.80;;;22.10;99.90;;;;;;5051779;28;20879;-63
2023/07/28 03:22:50;;;;;;;21.00;20.30;;;22.10;99.90;;;;;;5051927;28;20444;-64
2023/07/28 03:25:17;;;;;;;20.13;19.43;;;22.10;99.90;;;;;;5051532;28;20508;-63
2023/07/28 03:27:45;;;;;;;21.07;20.37;;;22.10;99.90;;;;;;5050730;28;20499;-63
2023/07/28 03:30:12;;;;;;;20.40;19.80;;;22.10;99.90;;;;;;5051506;28;20499;-63
2023/07/28 03:32:39;;;;;;;21.63;20.97;;;22.10;99.90;;;;;;5051627;28;20475;-63
2023/07/28 03:35:07;;;;;;;21.10;20.40;;;22.10;99.90;;;;;;5051620;28;20476;-63
2023/07/28 03:37:35;;;;;;;20.77;20.07;;;22.10;99.90;;;;;;5050613;28;20454;-63
2023/07/28 03:40:02;;;;;;;20.83;19.80;;;22.10;99.90;;;;;;5051255;28;20471;-64
2023/07/28 03:42:29;;;;;;;21.20;20.50;;;22.10;99.90;;;;;;5051553;28;20472;-64
2023/07/28 03:44:57;;;;;;;21.10;20.40;;;22.10;99.90;;;;;;5051396;28;21009;-63
2023/07/28 03:47:24;;;;;;;20.80;20.20;;;22.10;99.90;;;;;;5043725;28;20456;-64
2023/07/28 03:49:51;;;;;;;19.20;18.50;;;22.10;99.90;;;;;;5051273;28;20487;-63
2023/07/28 03:52:18;;;;;;;18.63;18.03;;;22.10;99.90;;;;;;5050565;28;20502;-63
2023/07/28 03:54:45;;;;;;;20.00;19.30;;;22.10;99.90;;;;;;5051310;28;20486;-63
2023/07/28 03:57:11;;;;;;;21.40;20.70;;;22.10;99.90;;;;;;5050329;28;20476;-63
2023/07/28 03:59:38;;;;;;;22.90;22.20;;;22.10;99.90;;;;;;5051259;28;20880;-64
2023/07/28 04:02:07;;;;;;;23.20;22.40;;;22.10;99.90;;;;;;5050862;28;20504;-63
2023/07/28 04:04:34;;;;;;;21.30;20.60;;;22.10;99.90;;;;;;5051279;28;20490;-63
2023/07/28 04:07:00;;;;;;;21.77;21.07;;;22.10;99.90;;;;;;5045228;28;20571;-63
2023/07/28 04:09:28;;;;;;;23.33;22.53;;;22.10;99.90;;;;;;5049466;28;20482;-63
2023/07/28 04:11:55;;;;;;;22.67;21.97;;;22.10;99.90;;;;;;5051171;28;20705;-63
2023/07/28 04:14:22;;;;;;;22.10;21.10;;;22.10;99.90;;;;;;5050993;28;20467;-63
2023/07/28 04:16:49;;;;;;;22.53;21.70;;;22.10;99.90;;;;;;5050248;28;20503;-64
2023/07/28 04:19:17;;;;;;;27.37;25.63;;;22.10;99.90;;;;;;5051075;28;20444;-63
2023/07/28 04:21:45;;;;;;;27.87;25.97;;;22.10;99.90;;;;;;5050914;28;20495;-63
2023/07/28 04:24:12;;;;;;;24.57;23.27;;;22.20;99.90;;;;;;5051055;28;20509;-63
2023/07/28 04:26:39;;;;;;;32.73;31.27;;;22.20;99.90;;;;;;5050079;28;20555;-64
2023/07/28 04:29:05;;;;;;;34.63;32.73;;;22.20;99.90;;;;;;5050705;28;20472;-66
2023/07/28 04:31:32;;;;;;;31.60;29.93;;;22.20;99.90;;;;;;5050854;28;20498;-67
2023/07/28 04:33:59;;;;;;;32.20;30.93;;;22.30;99.90;;;;;;5051252;28;20475;-67
2023/07/28 04:36:27;;;;;;;30.80;29.80;;;22.30;99.90;;;;;;5050401;28;20480;-62
2023/07/28 04:38:54;;;;;;;32.53;31.53;;;22.40;99.90;;;;;;5050065;28;20893;-60
2023/07/28 04:41:21;;;;;;;31.40;30.20;;;22.50;99.90;;;;;;5050553;28;20478;-66
2023/07/28 04:43:48;;;;;;;26.00;25.00;;;22.60;99.90;;;;;;5047942;28;20966;-63
2023/07/28 04:46:15;;;;;;;26.73;25.40;;;22.70;99.90;;;;;;5050909;28;21037;-62
2023/07/28 04:48:42;;;;;;;25.23;24.23;;;22.80;99.90;;;;;;5050703;28;20475;-62
2023/07/28 04:51:09;;;;;;;24.37;23.27;;;22.90;99.90;;;;;;5050585;28;20496;-63
2023/07/28 04:53:37;;;;;;;23.90;22.90;;;23.00;99.90;;;;;;5050791;28;20483;-63
2023/07/28 04:56:05;;;;;;;23.77;22.80;;;23.10;99.90;;;;;;5050582;28;20499;-63
2023/07/28 04:58:31;;;;;;;27.30;26.10;;;23.10;99.90;;;;;;5050811;28;20491;-63
2023/07/28 05:00:58;;;;;;;25.87;24.57;;;23.20;99.90;;;;;;5050756;28;20507;-62
2023/07/28 05:03:25;;;;;;;25.93;24.60;;;23.20;99.90;;;;;;5050729;28;21008;-60
2023/07/28 05:05:52;;;;;;;25.37;24.47;;;23.20;99.90;;;;;;5054212;28;21013;-62
2023/07/28 05:08:19;;;;;;;25.70;24.70;;;23.20;99.90;;;;;;5054207;28;20519;-62
2023/07/28 05:10:48;;;;;;;25.13;24.23;;;23.20;99.90;;;;;;5054248;28;20503;-63
2023/07/28 05:13:15;;;;;;;24.67;23.70;;;23.20;99.90;;;;;;5054299;28;20505;-63
2023/07/28 05:15:41;;;;;;;24.80;23.90;;;23.20;99.90;;;;;;5054339;28;20475;-61
2023/07/28 05:18:08;;;;;;;27.00;26.00;;;23.10;99.90;;;;;;5053894;28;20988;-63
2023/07/28 05:20:35;;;;;;;24.90;24.00;;;23.10;99.90;;;;;;5054068;28;20970;-63
2023/07/28 05:23:02;;;;;;;23.20;22.40;;;23.10;99.90;;;;;;5054362;28;20858;-63
2023/07/28 05:25:29;;;;;;;24.50;23.57;;;23.00;99.90;;;;;;5045942;28;21002;-63
2023/07/28 05:27:58;;;;;;;24.07;23.27;;;23.00;99.90;;;;;;5054186;28;20440;-61
2023/07/28 05:30:25;;;;;;;24.00;23.20;;;22.90;99.90;;;;;;5053606;28;20515;-63
2023/07/28 05:32:51;;;;;;;24.47;23.67;;;23.00;99.90;;;;;;5053960;28;20443;-63
2023/07/28 05:35:20;;;;;;;24.97;23.97;;;23.00;99.90;;;;;;5053803;28;20480;-62
2023/07/28 05:37:47;;;;;;;23.23;22.43;;;22.90;99.90;;;;;;5053700;28;20826;-63
2023/07/28 05:40:14;;;;;;;25.00;24.10;;;22.90;99.90;;;;;;5053661;28;20471;-63
2023/07/28 05:42:41;;;;;;;25.03;24.13;;;22.90;99.90;;;;;;5053750;28;20502;-63
2023/07/28 05:45:10;;;;;;;24.37;23.47;;;22.80;99.90;;;;;;5053631;28;20452;-63
2023/07/28 05:47:37;;;;;;;24.70;23.80;;;22.80;99.90;;;;;;5053366;28;20510;-63
2023/07/28 05:50:06;;;;;;;24.07;23.17;;;22.80;99.90;;;;;;5053425;28;20487;-63
2023/07/28 05:52:33;;;;;;;24.17;23.30;;;22.80;99.90;;;;;;5053461;28;20476;-63
2023/07/28 05:54:59;;;;;;;23.20;22.50;;;22.80;99.90;;;;;;5053521;28;20448;-62
2023/07/28 05:57:26;;;;;;;24.33;23.20;;;22.70;99.90;;;;;;5053204;28;20437;-61
2023/07/28 05:59:53;;;;;;;23.37;22.57;;;22.80;99.90;;;;;;5053063;28;20440;-63
2023/07/28 06:02:22;;;;;;;25.97;25.17;;;22.70;99.90;;;;;;5053319;28;20469;-63
2023/07/28 06:04:49;;;;;;;24.90;23.93;;;22.70;99.90;;;;;;5053475;28;20507;-62
2023/07/28 06:07:16;;;;;;;26.20;25.20;;;22.70;99.90;;;;;;5052832;28;20484;-63
2023/07/28 06:09:43;;;;;;;25.43;24.63;;;22.70;99.90;;;;;;5053202;28;20554;-62
2023/07/28 06:12:10;;;;;;;27.77;26.60;;;22.70;99.90;;;;;;5053242;28;20514;-64
2023/07/28 06:14:37;;;;;;;26.10;25.20;;;22.70;99.90;;;;;;5053246;28;20444;-63
2023/07/28 06:17:04;;;;;;;25.97;25.10;;;22.70;99.90;;;;;;5052101;28;20475;-63
2023/07/28 06:19:32;;;;;;;26.40;25.43;;;22.60;99.90;;;;;;5045017;28;20479;-63
2023/07/28 06:22:00;;;;;;;26.17;25.37;;;22.60;99.90;;;;;;5052944;28;20468;-63
2023/07/28 06:24:27;;;;;;;26.90;26.00;;;22.60;99.90;;;;;;5052861;28;20455;-63
2023/07/28 06:26:54;;;;;;;26.87;25.97;;;22.60;99.90;;;;;;5052775;28;20491;-63
2023/07/28 06:29:21;;;;;;;27.30;26.20;;;22.60;99.90;;;;;;5052758;28;20499;-63
2023/07/28 06:31:48;;;;;;;25.57;24.67;;;22.60;99.90;;;;;;5052685;28;20835;-64
2023/07/28 06:34:15;;;;;;;24.23;23.43;;;22.60;99.90;;;;;;5052636;28;20444;-63
2023/07/28 06:36:43;;;;;;;24.43;23.53;;;22.60;99.90;;;;;;5052639;28;20527;-63
2023/07/28 06:39:10;;;;;;;25.03;24.23;;;22.60;99.90;;;;;;5052483;28;20476;-61
2023/07/28 06:41:36;;;;;;;24.60;23.80;;;22.60;99.90;;;;;;5052747;28;20499;-63
2023/07/28 06:44:04;;;;;;;25.43;24.53;;;22.60;99.90;;;;;;5052494;28;20480;-63
2023/07/28 06:46:30;;;;;;;23.47;22.67;;;22.60;99.90;;;;;;5044191;28;20486;-62
2023/07/28 06:48:57;;;;;;;24.20;23.20;;;22.60;99.90;;;;;;5052366;28;20448;-63
2023/07/28 06:51:24;;;;;;;25.27;24.47;;;22.60;99.90;;;;;;5052282;28;21006;-63
2023/07/28 06:53:52;;;;;;;25.53;24.70;;;22.60;99.90;;;;;;5052433;28;20448;-62
2023/07/28 06:56:19;;;;;;;25.23;24.23;;;22.60;99.90;;;;;;5052293;28;20495;-63
2023/07/28 06:58:46;;;;;;;26.20;25.30;;;22.50;99.90;;;;;;5052169;28;20491;-63
2023/07/28 07:01:13;;;;;;;24.70;23.90;;;22.60;99.90;;;;;;5051985;28;20500;-63
2023/07/28 07:03:40;;;;;;;22.70;22.00;;;22.60;99.90;;;;;;5052260;28;20483;-62
2023/07/28 07:06:07;;;;;;;25.00;24.10;;;22.60;99.90;;;;;;5051916;28;20478;-63
2023/07/28 07:08:34;;;;;;;23.53;22.73;;;22.60;99.90;;;;;;5052084;28;20444;-63
2023/07/28 07:11:02;;;;;;;25.17;24.33;;;22.60;99.90;;;;;;5051908;28;20472;-63
2023/07/28 07:13:29;;;;;;;25.07;24.17;;;22.60;99.90;;;;;;5051725;28;20471;-63
2023/07/28 07:15:56;;;;;;;24.83;24.03;;;22.50;99.90;;;;;;5051849;28;20487;-61
2023/07/28 07:18:23;;;;;;;24.63;23.83;;;22.60;99.90;;;;;;5051618;28;21016;-63
2023/07/28 07:20:50;;;;;;;23.40;22.60;;;22.50;99.90;;;;;;5051787;28;20464;-63
2023/07/28 07:23:16;;;;;;;24.67;23.87;;;22.60;99.90;;;;;;5051844;28;20483;-61
2023/07/28 07:25:43;;;;;;;24.53;23.63;;;22.60;99.90;;;;;;5051813;28;20932;-62
2023/07/28 07:28:12;;;;;;;24.80;24.00;;;22.60;99.90;;;;;;5051382;28;20483;-62
2023/07/28 07:30:39;;;;;;;25.37;24.47;;;22.60;99.90;;;;;;5051690;28;20637;-61
2023/07/28 07:33:06;;;;;;;25.33;24.53;;;22.60;99.90;;;;;;5051694;28;20581;-63
2023/07/28 07:35:38;;;;;;;25.97;25.07;;;22.60;99.90;;;;;;5043609;28;20471;-61
2023/07/28 07:38:08;;;;;;;25.57;24.67;;;22.60;99.90;;;;;;5051399;28;20449;-63
2023/07/28 07:40:35;;;;;;;23.90;23.00;;;22.60;99.90;;;;;;5043648;28;20464;-63
2023/07/28 07:43:03;;;;;;;26.63;25.73;;;22.60;99.90;;;;;;5051511;28;20479;-63
2023/07/28 07:45:31;;;;;;;24.37;23.57;;;22.60;99.90;;;;;;5051346;28;20498;-63
2023/07/28 07:47:58;;;;;;;25.03;24.23;;;22.60;99.90;;;;;;5051084;28;20535;-61
2023/07/28 07:50:26;;;;;;;25.07;24.27;;;22.60;99.90;;;;;;5051291;28;20499;-63
2023/07/28 07:52:53;;;;;;;26.07;25.17;;;22.60;99.90;;;;;;5051346;28;20483;-63
2023/07/28 07:55:20;;;;;;;24.80;23.93;;;22.50;99.90;;;;;;5051268;28;20483;-63
2023/07/28 07:57:47;;;;;;;25.00;24.20;;;22.60;99.90;;;;;;5051045;28;20447;-61
2023/07/28 08:00:14;;;;;;;24.50;23.70;;;22.60;99.90;;;;;;5051031;28;20503;-64
2023/07/28 08:02:43;;;;;;;24.70;23.90;;;22.60;99.90;;;;;;5051319;28;20786;-63
2023/07/28 08:05:10;;;;;;;24.57;23.77;;;22.60;99.90;;;;;;5051076;28;21241;-63
2023/07/28 08:07:37;;;;;;;25.70;24.80;;;22.60;99.90;;;;;;5050882;28;20906;-63
2023/07/28 08:10:04;;;;;;;25.63;24.73;;;22.60;99.90;;;;;;5051038;28;21037;-61
2023/07/28 08:12:32;;;;;;;26.10;25.20;;;22.60;99.90;;;;;;5050898;28;20475;-62
2023/07/28 08:14:59;;;;;;;25.63;24.73;;;22.60;99.90;;;;;;5051038;28;20978;-63
2023/07/28 08:17:26;;;;;;;25.73;24.83;;;22.60;99.90;;;;;;5050773;28;20476;-62
2023/07/28 08:19:54;;;;;;;26.10;25.20;;;22.50;99.90;;;;;;5050992;28;20479;-63
2023/07/28 08:22:21;;;;;;;24.83;23.83;;;22.60;99.90;;;;;;5050925;28;21031;-63
2023/07/28 08:24:48;;;;;;;26.03;25.13;;;22.60;99.90;;;;;;5051028;28;20440;-61
2023/07/28 08:27:15;;;;;;;23.73;22.93;;;22.60;99.90;;;;;;5050593;28;20515;-63
2023/07/28 08:29:42;;;;;;;26.50;25.50;;;22.60;99.90;;;;;;5051007;28;20480;-63
2023/07/28 08:32:09;;;;;;;26.40;25.50;;;22.60;99.90;;;;;;5050886;28;20483;-63
2023/07/28 08:34:36;;;;;;;26.37;25.47;;;22.60;99.90;;;;;;5043014;28;20494;-63
2023/07/28 08:37:05;;;;;;;25.70;24.73;;;22.60;99.90;;;;;;5050755;28;20877;-63
2023/07/28 08:39:32;;;;;;;25.90;25.00;;;22.60;99.90;;;;;;5052645;28;20494;-63
2023/07/28 08:42:00;;;;;;;22.43;21.63;;;22.60;99.90;;;;;;5054678;28;20492;-63
2023/07/28 08:44:27;;;;;;;24.57;23.57;;;22.60;99.90;;;;;;5054926;28;20446;-63
2023/07/28 08:46:55;;;;;;;23.60;22.60;;;22.60;99.90;;;;;;5054514;28;20475;-62
2023/07/28 08:49:22;;;;;;;24.20;23.30;;;22.60;99.90;;;;;;5054619;28;20444;-63
2023/07/28 08:51:50;;;;;;;25.17;24.27;;;22.60;99.90;;;;;;5054661;28;20487;-63
2023/07/28 08:54:19;;;;;;;25.83;24.93;;;22.60;99.90;;;;;;5054593;28;20501;-62
2023/07/28 08:56:46;;;;;;;24.20;23.30;;;22.60;99.90;;;;;;5054564;28;20444;-63
2023/07/28 08:59:13;;;;;;;24.17;23.37;;;22.60;99.90;;;;;;5054380;28;20479;-63
2023/07/28 09:01:40;;;;;;;23.87;22.97;;;22.60;99.90;;;;;;5054750;28;20503;-63
2023/07/28 09:04:11;;;;;;;24.80;23.90;;;22.60;99.90;;;;;;5054547;28;20444;-63
2023/07/28 09:06:39;;;;;;;26.13;24.87;;;22.60;99.90;;;;;;5046522;28;20506;-61
2023/07/28 09:09:08;;;;;;;24.43;23.53;;;22.70;99.90;;;;;;5054045;28;20447;-63
2023/07/28 09:11:45;;;;;;;25.37;24.27;;;22.70;99.90;;;;;;5054156;28;20463;-63
2023/07/28 09:14:13;;;;;;;24.33;23.53;;;22.60;99.90;;;;;;5054322;28;20444;-62
2023/07/28 09:16:40;;;;;;;27.50;26.50;;;22.60;99.90;;;;;;5054054;28;20448;-63
2023/07/28 09:19:08;;;;;;;23.27;22.37;;;22.70;99.90;;;;;;5054123;28;20892;-63
2023/07/28 09:21:35;;;;;;;23.97;23.10;;;22.70;99.90;;;;;;5053958;28;21015;-62
2023/07/28 09:24:05;;;;;;;24.10;23.30;;;22.60;99.90;;;;;;5054092;28;20962;-62
2023/07/28 09:26:39;;;;;;;24.20;23.23;;;22.60;99.90;;;;;;5053867;28;20445;-63
2023/07/28 09:29:15;;;;;;;23.87;22.87;;;22.70;99.90;;;;;;5053804;28;20515;-61
2023/07/28 09:31:42;;;;;;;25.40;24.40;;;22.70;99.90;;;;;;5046506;28;20471;-63
2023/07/28 09:34:09;;;;;;;25.60;24.63;;;22.60;99.90;;;;;;5053871;28;20490;-63
2023/07/28 09:36:38;;;;;;;24.03;23.13;;;22.70;99.90;;;;;;5053639;28;20498;-62
2023/07/28 09:39:07;;;;;;;24.40;23.50;;;22.70;99.90;;;;;;5053704;28;20510;-63
2023/07/28 09:41:36;;;;;;;23.93;23.03;;;22.70;99.90;;;;;;5053740;28;20522;-64
2023/07/28 09:44:05;;;;;;;23.70;22.70;;;22.70;99.90;;;;;;5053790;28;20440;-63
2023/07/28 09:46:35;;;;;;;25.00;23.27;;;22.70;99.90;;;;;;5053613;28;20448;-63
2023/07/28 09:49:06;;;;;;;24.20;23.27;;;22.70;99.90;;;;;;5053358;28;20847;-62
2023/07/28 09:51:36;;;;;;;24.53;23.63;;;22.70;99.90;;;;;;5052314;28;20880;-63
2023/07/28 09:54:06;;;;;;;24.30;23.40;;;22.70;99.90;;;;;;5053747;28;20872;-60
2023/07/28 09:56:34;;;;;;;26.40;25.30;;;22.70;99.90;;;;;;5053246;28;20455;-63
2023/07/28 09:59:10;;;;;;;23.90;22.87;;;22.70;99.90;;;;;;5053358;28;20486;-62
2023/07/28 10:01:37;;;;;;;25.43;24.53;;;22.70;99.90;;;;;;5053134;28;21006;-63
2023/07/28 10:04:04;;;;;;;25.23;24.27;;;22.70;99.90;;;;;;5053345;28;20452;-63
2023/07/28 10:06:33;;;;;;;24.60;23.70;;;22.70;99.90;;;;;;5053150;28;20476;-62
2023/07/28 10:09:00;;;;;;;26.33;25.43;;;22.70;99.90;;;;;;5052960;28;20484;-62
2023/07/28 10:11:28;;;;;;;26.30;25.30;;;22.80;99.90;;;;;;5053182;28;20538;-61
2023/07/28 10:13:55;;;;;;;25.47;24.60;;;22.70;99.90;;;;;;5053145;28;20460;-62
2023/07/28 10:16:38;;;;;;;26.60;25.60;;;22.80;99.90;;;;;;5052985;28;20448;-63
2023/07/28 10:19:05;;;;;;;27.20;26.20;;;22.80;99.90;;;;;;5052880;28;20445;-62
2023/07/28 10:21:32;;;;;;;26.57;25.57;;;22.80;99.90;;;;;;5052869;28;20521;-62
2023/07/28 10:24:00;;;;;;;26.00;25.10;;;22.80;99.90;;;;;;5052956;28;20454;-62
2023/07/28 10:26:35;;;;;;;25.60;24.70;;;22.80;99.90;;;;;;5052759;28;20479;-63
2023/07/28 10:29:20;;;;;;;27.03;26.13;;;22.80;99.90;;;;;;5052764;28;20475;-62
2023/07/28 10:31:53;;;;;;;24.87;23.87;;;22.80;99.90;;;;;;5045822;28;20468;-63
2023/07/28 10:34:21;;;;;;;26.10;25.20;;;22.80;99.90;;;;;;5052794;28;20935;-63
2023/07/28 10:36:57;;;;;;;26.30;25.30;;;22.80;99.90;;;;;;5052555;28;20444;-63
2023/07/28 10:39:24;;;;;;;26.97;25.97;;;22.80;99.90;;;;;;5052769;28;20444;-62
2023/07/28 10:42:03;;;;;;;27.33;26.23;;;22.80;99.90;;;;;;5052748;28;20468;-63
2023/07/28 10:44:30;;;;;;;25.83;24.93;;;22.80;99.90;;;;;;5052449;28;20467;-62
2023/07/28 10:46:59;;;;;;;26.80;25.83;;;22.80;99.90;;;;;;5052397;28;20496;-61
2023/07/28 10:49:26;;;;;;;25.73;24.83;;;22.80;99.90;;;;;;5052384;28;20589;-63
2023/07/28 10:51:53;;;;;;;25.30;24.40;;;22.80;99.90;;;;;;5052402;28;20496;-63
2023/07/28 10:54:21;;;;;;;26.10;25.10;;;22.80;99.90;;;;;;5052490;28;20476;-63
2023/07/28 10:56:48;;;;;;;27.10;26.10;;;22.80;99.90;;;;;;5052205;28;20463;-63
2023/07/28 10:59:16;;;;;;;25.93;25.00;;;22.90;99.90;;;;;;5052188;28;20792;-63
2023/07/28 11:01:44;;;;;;;25.47;24.57;;;22.90;99.90;;;;;;5051958;28;20503;-62
2023/07/28 11:04:16;;;;;;;26.17;25.27;;;22.90;99.90;;;;;;5052402;28;20875;-63
2023/07/28 11:06:44;;;;;;;22.90;22.10;;;22.90;99.90;;;;;;5044416;28;20448;-64
2023/07/28 11:09:12;;;;;;;25.17;24.27;;;22.90;99.90;;;;;;5051983;28;20919;-63
2023/07/28 11:11:40;;;;;;;24.30;23.40;;;22.90;99.90;;;;;;5051965;28;20503;-63
2023/07/28 11:14:08;;;;;;;25.20;24.30;;;22.90;99.90;;;;;;5052019;28;20521;-63
2023/07/28 11:16:36;;;;;;;23.70;22.80;;;22.90;99.90;;;;;;5051917;28;20452;-63
2023/07/28 11:19:09;;;;;;;23.77;22.97;;;22.90;99.90;;;;;;5051891;28;20874;-63
2023/07/28 11:21:38;;;;;;;24.50;23.50;;;22.90;99.90;;;;;;5051725;28;20477;-64
2023/07/28 11:24:06;;;;;;;24.97;24.07;;;22.90;99.90;;;;;;5051855;28;20471;-63
2023/07/28 11:26:35;;;;;;;24.20;23.20;;;22.90;99.90;;;;;;5051682;28;21002;-63
2023/07/28 11:29:02;;;;;;;26.70;25.80;;;22.90;99.90;;;;;;5051526;28;20533;-64
2023/07/28 11:31:29;;;;;;;30.37;29.30;;;22.90;99.90;;;;;;5051432;28;20500;-63
2023/07/28 11:33:56;;;;;;;29.23;28.23;;;23.00;99.90;;;;;;5051726;28;20491;-63
2023/07/28 11:36:24;;;;;;;28.80;27.80;;;22.90;99.90;;;;;;5051774;28;20509;-63
2023/07/28 11:38:54;;;;;;;28.33;27.43;;;22.90;99.90;;;;;;5051527;28;20498;-63
2023/07/28 11:41:23;;;;;;;28.10;27.10;;;22.90;99.90;;;;;;5051353;28;20471;-63
2023/07/28 11:43:51;;;;;;;28.40;27.40;;;23.00;99.90;;;;;;5051663;28;20452;-63
2023/07/28 11:46:37;;;;;;;27.23;26.33;;;23.00;99.90;;;;;;5051454;28;20476;-61
2023/07/28 11:49:11;;;;;;;27.63;26.63;;;23.00;99.90;;;;;;5051368;28;20549;-63
2023/07/28 11:51:43;;;;;;;29.03;28.03;;;23.00;99.90;;;;;;5051163;28;20455;-61
2023/07/28 11:54:12;;;;;;;29.07;28.07;;;23.00;99.90;;;;;;5051448;28;20927;-64
2023/07/28 11:56:39;;;;;;;28.77;27.77;;;23.00;99.90;;;;;;5051143;28;20448;-63
2023/07/28 11:59:06;;;;;;;27.63;26.63;;;23.00;99.90;;;;;;5051132;28;20448;-61
2023/07/28 12:01:33;;;;;;;26.93;26.03;;;23.10;99.90;;;;;;5051105;28;20499;-63
2023/07/28 12:04:00;;;;;;;27.30;26.30;;;23.10;99.90;;;;;;5051440;28;20479;-63
2023/07/28 12:06:27;;;;;;;27.57;26.60;;;23.00;99.90;;;;;;5051074;28;20462;-63
2023/07/28 12:09:05;;;;;;;28.27;27.27;;;23.00;99.90;;;;;;5050911;28;20550;-61
2023/07/28 12:11:34;;;;;;;28.97;27.97;;;23.10;99.90;;;;;;5050969;28;20471;-63
2023/07/28 12:14:00;;;;;;;29.30;28.30;;;23.10;99.90;;;;;;5050455;28;20514;-61
2023/07/28 12:16:42;;;;;;;27.27;26.30;;;23.10;99.90;;;;;;5050907;28;20965;-62
2023/07/28 12:19:09;;;;;;;28.27;27.27;;;23.10;99.90;;;;;;5050906;28;20829;-64
2023/07/28 12:21:36;;;;;;;28.13;27.13;;;23.10;99.90;;;;;;5050741;28;20823;-63
2023/07/28 12:24:03;;;;;;;28.13;27.13;;;23.10;99.90;;;;;;5050986;28;20534;-63
2023/07/28 12:26:29;;;;;;;26.43;25.53;;;23.10;99.90;;;;;;5050897;28;20483;-63
2023/07/28 12:28:58;;;;;;;29.27;28.23;;;23.10;99.90;;;;;;5050923;28;20484;-62
2023/07/28 12:31:25;;;;;;;27.63;26.63;;;23.10;99.90;;;;;;5051016;28;21028;-63